Time;durP1;ratioP1;P1;durP2;ratioP2;P2;SDS_P1;SDS_P2;PMS_P1;PMS_P2;Temp;Humidity;BMP_temperature;BMP_pressure;BME280_temperature;BME280_humidity;BME280_pressure;Samples;Min_cycle;Max_cycle;Signal;HPM_P1;HPM_P2
2022/03/23 00:01:40;;;;;;;2.75;1.67;;;;;;;3.99;49.97;62412.13;5042872;28;20201;-76
2022/03/23 00:04:07;;;;;;;5.88;2.55;;;;;;;4.02;50.64;62414.69;5041020;28;20225;-76
2022/03/23 00:06:34;;;;;;;4.13;2.33;;;;;;;3.91;50.80;62403.38;5040962;28;20237;-76
2022/03/23 00:09:02;;;;;;;9.90;5.00;;;;;;;3.86;50.68;62395.72;5042882;28;20202;-76
2022/03/23 00:11:29;;;;;;;17.85;6.03;;;;;;;3.82;52.35;62391.59;5043017;28;20240;-75
2022/03/23 00:13:56;;;;;;;6.28;2.90;;;;;;;3.62;51.67;62371.56;5048192;28;20210;-75
2022/03/23 00:16:24;;;;;;;3.75;2.20;;;;;;;3.55;51.69;62364.34;5056079;28;20220;-75
2022/03/23 00:18:51;;;;;;;2.97;1.92;;;;;;;3.52;52.23;62363.78;5044854;28;20233;-76
2022/03/23 00:21:18;;;;;;;4.47;1.77;;;;;;;3.45;52.50;62359.59;5042594;28;20269;-76
2022/03/23 00:23:44;;;;;;;3.72;2.00;;;;;;;3.45;51.75;62351.56;5042482;28;20412;-76
2022/03/23 00:26:13;;;;;;;2.40;1.65;;;;;;;3.38;51.67;62349.91;5042016;28;20495;-76
2022/03/23 00:28:40;;;;;;;3.65;1.90;;;;;;;3.39;51.27;62347.91;5040100;28;20221;-76
2022/03/23 00:31:07;;;;;;;2.63;1.88;;;;;;;3.40;50.77;62354.47;5041977;28;20202;-77
2022/03/23 00:33:35;;;;;;;10.43;2.35;;;;;;;3.31;51.56;62340.19;5042430;28;20469;-76
2022/03/23 00:36:02;;;;;;;6.65;2.60;;;;;;;3.35;50.90;62343.78;5042720;28;20198;-76
2022/03/23 00:38:29;;;;;;;6.13;2.20;;;;;;;3.33;51.46;62339.22;5045373;28;20214;-75
2022/03/23 00:40:56;;;;;;;1.88;1.77;;;;;;;3.37;51.31;62348.34;5045527;28;20361;-75
2022/03/23 00:43:23;;;;;;;3.20;1.92;;;;;;;3.37;51.29;62343.84;5045957;28;20245;-75
2022/03/23 00:45:50;;;;;;;2.88;2.03;;;;;;;3.39;51.12;62347.91;5046708;28;20422;-76
2022/03/23 00:48:17;;;;;;;4.32;1.77;;;;;;;3.20;51.85;62331.41;5045981;28;20218;-75
2022/03/23 00:50:45;;;;;;;1.67;1.58;;;;;;;3.11;51.21;62324.66;5036902;28;20278;-75
2022/03/23 00:53:12;;;;;;;3.53;1.75;;;;;;;3.07;51.29;62315.50;5046351;28;20450;-76
2022/03/23 00:55:41;;;;;;;5.03;1.80;;;;;;;3.06;50.84;62317.00;5046190;28;20293;-75
2022/03/23 00:58:07;;;;;;;1.98;1.48;;;;;;;3.16;50.59;62324.25;5032525;28;20222;-75
2022/03/23 01:00:35;;;;;;;3.05;1.67;;;;;;;3.28;50.34;62341.63;5046310;28;20206;-75
2022/03/23 01:03:02;;;;;;;1.88;1.77;;;;;;;3.26;50.93;62335.03;5044946;28;20234;-74
2022/03/23 01:05:29;;;;;;;1.98;1.70;;;;;;;3.15;50.97;62321.22;5045841;28;20213;-76
2022/03/23 01:07:57;;;;;;;5.70;1.60;;;;;;;3.08;51.36;62321.59;5044904;28;20245;-76
2022/03/23 01:10:24;;;;;;;3.35;1.70;;;;;;;3.09;51.73;62312.03;5045990;28;20201;-75
2022/03/23 01:12:51;;;;;;;3.63;1.75;;;;;;;3.14;50.77;62319.69;5046808;28;20218;-75
2022/03/23 01:15:20;;;;;;;2.17;1.90;;;;;;;3.13;50.60;62321.16;5046681;28;20210;-76
2022/03/23 01:17:47;;;;;;;1.98;1.63;;;;;;;3.11;50.50;62319.63;5051400;28;20249;-75
2022/03/23 01:20:15;;;;;;;1.75;1.55;;;;;;;3.23;50.34;62334.47;5048017;28;20202;-74
2022/03/23 01:22:44;;;;;;;2.05;1.60;;;;;;;3.27;49.95;62338.06;5045125;28;20253;-75
2022/03/23 01:25:13;;;;;;;1.63;1.40;;;;;;;3.32;49.72;62338.19;5045517;28;20526;-76
2022/03/23 01:27:41;;;;;;;6.50;2.00;;;;;;;3.31;49.88;62340.19;5028032;28;20218;-76
2022/03/23 01:30:11;;;;;;;2.40;1.63;;;;;;;3.28;50.37;62337.09;5025731;28;20499;-76
2022/03/23 01:32:39;;;;;;;2.22;1.27;;;;;;;3.25;49.78;62341.06;5035277;28;20220;-76
2022/03/23 01:35:07;;;;;;;2.85;1.75;;;;;;;3.25;49.46;62334.03;5045140;28;20225;-76
2022/03/23 01:37:34;;;;;;;2.75;1.73;;;;;;;3.27;49.46;62335.56;5045859;28;20222;-76
2022/03/23 01:40:01;;;;;;;3.67;1.92;;;;;;;3.18;50.05;62329.34;5033164;28;20203;-75
2022/03/23 01:42:29;;;;;;;3.92;1.70;;;;;;;3.15;50.00;62323.75;5042692;28;20255;-76
2022/03/23 01:44:57;;;;;;;10.18;1.90;;;;;;;3.14;50.14;62322.72;5045259;28;20194;-75
2022/03/23 01:47:24;;;;;;;4.07;1.95;;;;;;;3.18;50.30;62326.81;5045712;28;20221;-76
2022/03/23 01:49:53;;;;;;;1.30;1.20;;;;;;;3.14;50.34;62322.72;5042347;28;20198;-76
2022/03/23 01:52:22;;;;;;;3.92;1.85;;;;;;;3.08;50.72;62318.53;5045123;28;20260;-76
2022/03/23 01:54:49;;;;;;;2.90;1.45;;;;;;;3.03;50.52;62316.44;5044844;28;20232;-76
2022/03/23 01:57:17;;;;;;;5.93;1.73;;;;;;;2.97;50.29;62305.25;5036056;28;20250;-76
2022/03/23 01:59:46;;;;;;;2.83;1.70;;;;;;;2.97;50.85;62310.28;5031896;28;20203;-75
2022/03/23 02:02:13;;;;;;;2.28;2.08;;;;;;;3.00;51.31;62305.81;5026335;28;20268;-76
2022/03/23 02:04:40;;;;;;;3.92;1.98;;;;;;;2.93;51.76;62300.63;5043694;28;20226;-76
2022/03/23 02:07:08;;;;;;;1.80;1.70;;;;;;;2.87;51.97;62294.97;5044454;28;20424;-76
2022/03/23 02:09:34;;;;;;;2.58;1.50;;;;;;;2.79;52.20;62289.25;5042465;28;20198;-75
2022/03/23 02:12:02;;;;;;;5.70;1.83;;;;;;;2.76;52.73;62290.69;5044475;28;20260;-76
2022/03/23 02:14:30;;;;;;;1.75;1.38;;;;;;;2.61;53.23;62270.75;5038957;28;20240;-76
2022/03/23 02:16:59;;;;;;;6.05;1.70;;;;;;;2.37;53.18;62246.09;5038117;28;20461;-75
2022/03/23 02:19:26;;;;;;;6.35;1.35;;;;;;;2.49;52.86;62260.44;5044289;28;20217;-76
2022/03/23 02:21:54;;;;;;;1.83;1.73;;;;;;;2.46;53.17;62252.84;5044520;28;20238;-76
2022/03/23 02:24:24;;;;;;;1.75;1.60;;;;;;;2.33;53.02;62245.03;5043203;28;20241;-76
2022/03/23 02:26:51;;;;;;;2.63;1.55;;;;;;;2.47;53.21;62258.38;5033451;28;20229;-76
2022/03/23 02:29:19;;;;;;;6.32;1.77;;;;;;;2.45;53.11;62251.31;5032060;28;20221;-76
2022/03/23 02:31:46;;;;;;;2.25;1.23;;;;;;;2.33;54.77;62242.00;5035583;28;20213;-76
2022/03/23 02:34:13;;;;;;;3.35;2.03;;;;;;;2.28;54.53;62236.84;5044416;28;20236;-74
2022/03/23 02:36:40;;;;;;;1.77;1.50;;;;;;;2.25;53.60;62234.31;5044382;28;20268;-76
2022/03/23 02:39:08;;;;;;;4.82;1.70;;;;;;;2.28;53.87;62236.84;5042794;28;20201;-75
2022/03/23 02:41:35;;;;;;;1.42;1.30;;;;;;;2.32;53.50;62236.47;5044447;28;20194;-77
2022/03/23 02:44:02;;;;;;;2.45;1.75;;;;;;;2.34;53.34;62241.03;5046569;28;20317;-76
2022/03/23 02:46:35;;;;;;;1.73;1.40;;;;;;;2.27;54.16;62230.81;5053724;28;20233;-75
2022/03/23 02:49:02;;;;;;;4.35;1.58;;;;;;;2.27;54.03;62233.84;5050832;28;20213;-76
2022/03/23 02:51:29;;;;;;;1.55;1.45;;;;;;;2.28;54.29;62236.84;5044926;28;20198;-76
2022/03/23 03:02:26;;;;;;;1.85;1.50;;;;;;;2.09;55.87;62214.84;5040282;28;20577;-76
2022/03/23 03:04:53;;;;;;;2.70;1.33;;;;;;;1.99;56.30;62205.09;5034948;28;20537;-74
2022/03/23 03:07:20;;;;;;;1.40;1.30;;;;;;;1.93;56.57;62198.41;5043921;28;20289;-76
2022/03/23 03:09:47;;;;;;;5.55;1.60;;;;;;;1.98;56.46;62208.56;5044780;28;20244;-75
2022/03/23 03:12:17;;;;;;;4.95;1.63;;;;;;;2.07;56.11;62215.31;5043934;28;20637;-76
2022/03/23 03:14:44;;;;;;;4.50;1.73;;;;;;;2.02;56.41;62205.16;5034265;28;20265;-75
2022/03/23 03:17:11;;;;;;;2.30;1.52;;;;;;;1.95;56.62;62200.47;5044307;28;20387;-76
2022/03/23 03:19:38;;;;;;;1.80;1.30;;;;;;;1.97;56.79;62205.53;5044401;28;20225;-76
2022/03/23 03:22:05;;;;;;;1.98;1.73;;;;;;;2.00;56.74;62208.63;5042837;28;20221;-76
2022/03/23 03:24:32;;;;;;;3.13;1.27;;;;;;;1.98;57.41;62204.06;5043305;28;20226;-75
2022/03/23 03:26:59;;;;;;;4.70;1.50;;;;;;;1.95;58.96;62206.00;5031720;28;20218;-77
2022/03/23 03:29:27;;;;;;;2.60;1.17;;;;;;;1.93;58.40;62196.41;5035461;28;20289;-75
2022/03/23 03:31:54;;;;;;;3.22;1.45;;;;;;;1.91;57.89;62201.91;5042942;28;20225;-76
2022/03/23 03:34:21;;;;;;;1.80;1.70;;;;;;;1.75;60.19;62185.47;5043404;28;20210;-75
2022/03/23 03:36:48;;;;;;;2.35;1.50;;;;;;;1.82;59.86;62192.13;5043242;28;20390;-75
2022/03/23 03:39:14;;;;;;;4.22;1.63;;;;;;;1.73;59.70;62180.38;5043512;28;20197;-75
2022/03/23 03:41:41;;;;;;;2.00;1.40;;;;;;;1.68;60.77;62170.75;5041327;28;20483;-75
2022/03/23 03:44:11;;;;;;;3.17;1.58;;;;;;;1.75;60.91;62182.44;5043137;28;20229;-75
2022/03/23 03:46:40;;;;;;;1.50;1.40;;;;;;;1.71;60.91;62178.34;5042662;28;20190;-75
2022/03/23 03:49:07;;;;;;;4.45;2.08;;;;;;;1.68;61.39;62170.22;5038712;28;20217;-75
2022/03/23 03:51:34;;;;;;;3.20;1.67;;;;;;;1.62;62.31;62166.59;5041868;28;20499;-75
2022/03/23 03:54:01;;;;;;;2.10;1.45;;;;;;;1.58;62.78;62165.50;5043519;28;20368;-75
2022/03/23 03:56:28;;;;;;;2.80;2.03;;;;;;;1.62;63.47;62167.13;5043454;28;20530;-76
2022/03/23 03:58:54;;;;;;;1.83;1.70;;;;;;;1.57;63.86;62163.97;5041674;28;20202;-75
2022/03/23 04:01:21;;;;;;;6.00;1.70;;;;;;;1.51;64.36;62160.84;5033560;28;20202;-76
2022/03/23 04:03:49;;;;;;;7.25;2.00;;;;;;;1.44;65.13;62148.13;5041275;28;20237;-76
2022/03/23 04:06:16;;;;;;;3.92;1.98;;;;;;;1.54;64.88;62156.38;5023126;28;20206;-76
2022/03/23 04:08:43;;;;;;;3.53;1.63;;;;;;;1.60;64.70;62167.06;5032396;28;20279;-76
2022/03/23 04:11:09;;;;;;;2.72;1.75;;;;;;;1.52;65.39;62156.84;5042864;28;20194;-75
2022/03/23 04:13:36;;;;;;;3.42;1.52;;;;;;;1.56;66.20;62160.44;5037409;28;20582;-75
2022/03/23 04:16:04;;;;;;;10.18;2.13;;;;;;;1.57;66.25;62166.97;5026819;28;20202;-76
2022/03/23 04:18:31;;;;;;;4.15;1.65;;;;;;;1.62;66.89;62169.09;5039462;28;20218;-77
2022/03/23 04:20:59;;;;;;;1.70;1.58;;;;;;;1.55;68.20;62156.91;5039089;28;20205;-75
2022/03/23 04:23:26;;;;;;;6.00;2.30;;;;;;;1.48;68.52;62157.25;5042420;28;20527;-76
2022/03/23 04:25:52;;;;;;;7.25;2.20;;;;;;;1.58;68.87;62159.97;5041971;28;20198;-75
2022/03/23 04:28:21;;;;;;;2.45;2.20;;;;;;;1.57;69.27;62161.97;5028283;28;20226;-76
2022/03/23 04:30:47;;;;;;;3.90;2.38;;;;;;;1.50;70.58;62159.78;5032030;28;20253;-75
2022/03/23 04:33:14;;;;;;;2.20;1.80;;;;;;;1.56;70.22;62165.97;5045963;28;20226;-77
2022/03/23 04:35:41;;;;;;;4.45;1.80;;;;;;;1.54;70.97;62155.88;5026455;28;20407;-76
2022/03/23 04:38:10;;;;;;;6.28;2.00;;;;;;;1.48;71.80;62150.22;5025424;28;20436;-76
2022/03/23 04:40:37;;;;;;;3.00;1.77;;;;;;;1.53;72.42;62157.34;5039925;28;20497;-76
2022/03/23 04:43:03;;;;;;;3.08;2.05;;;;;;;1.63;72.98;62167.63;5043924;28;20226;-77
2022/03/23 04:45:30;;;;;;;2.65;2.17;;;;;;;1.76;71.47;62175.94;5044621;28;20268;-76
2022/03/23 04:47:57;;;;;;;2.70;1.92;;;;;;;1.85;70.90;62192.69;5045591;28;20237;-76
2022/03/23 04:50:24;;;;;;;9.80;2.10;;;;;;;1.80;71.79;62182.56;5046551;28;20217;-77
2022/03/23 04:52:52;;;;;;;3.58;1.88;;;;;;;2.09;68.98;62217.34;5048886;28;20221;-76
2022/03/23 04:55:20;;;;;;;1.95;1.85;;;;;;;2.21;68.23;62232.69;5047431;28;20198;-77
2022/03/23 04:57:48;;;;;;;2.10;1.90;;;;;;;2.18;69.36;62222.09;5045739;28;20386;-75
2022/03/23 05:00:17;;;;;;;5.30;1.73;;;;;;;2.19;69.62;62230.63;5044913;28;20268;-76
2022/03/23 05:02:45;;;;;;;4.95;2.33;;;;;;;2.31;67.74;62235.44;5043756;28;20572;-75
2022/03/23 05:05:12;;;;;;;2.38;2.17;;;;;;;2.50;65.89;62259.47;5044477;28;20276;-75
2022/03/23 05:07:40;;;;;;;2.25;2.05;;;;;;;2.62;65.03;62271.28;5049528;28;20538;-75
2022/03/23 05:10:08;;;;;;;3.53;2.20;;;;;;;2.70;65.67;62276.97;5052345;28;20197;-76
2022/03/23 05:12:37;;;;;;;4.05;2.00;;;;;;;2.69;67.49;62280.97;5053465;28;20249;-76
2022/03/23 05:15:06;;;;;;;5.88;2.33;;;;;;;2.63;69.04;62270.31;5053684;28;20194;-76
2022/03/23 05:17:33;;;;;;;3.08;2.13;;;;;;;2.85;67.43;62292.91;5053534;28;20249;-76
2022/03/23 05:20:00;;;;;;;4.90;2.13;;;;;;;2.90;65.67;62297.53;5056692;28;20229;-76
2022/03/23 05:22:27;;;;;;;4.90;1.70;;;;;;;3.08;63.76;62319.06;5032568;28;20231;-76
2022/03/23 05:24:53;;;;;;;2.88;2.33;;;;;;;3.13;63.38;62324.19;5039205;28;20433;-76
2022/03/23 05:27:20;;;;;;;1.70;1.60;;;;;;;3.37;62.51;62348.34;5041449;28;20222;-76
2022/03/23 05:29:48;;;;;;;3.40;1.73;;;;;;;3.62;60.88;62371.56;5045572;28;20209;-76
2022/03/23 05:32:17;;;;;;;2.25;1.83;;;;;;;3.65;62.10;62376.63;5045182;28;20295;-75
2022/03/23 05:34:44;;;;;;;1.77;1.50;;;;;;;3.79;60.63;62391.03;5044822;28;20202;-76
2022/03/23 05:37:12;;;;;;;8.02;2.03;;;;;;;3.96;59.59;62408.53;5043509;28;20263;-76
2022/03/23 05:39:38;;;;;;;9.60;2.47;;;;;;;3.95;60.15;62408.00;5025895;28;20199;-76
2022/03/23 05:42:07;;;;;;;2.78;1.90;;;;;;;4.16;59.07;62432.13;5028532;28;20427;-76
2022/03/23 05:44:34;;;;;;;6.13;2.45;;;;;;;4.17;58.17;62428.13;5037790;28;20297;-76
2022/03/23 05:47:02;;;;;;;4.95;2.13;;;;;;;4.38;58.00;62449.22;5037242;28;20222;-77
2022/03/23 05:49:29;;;;;;;6.15;2.65;;;;;;;4.58;57.19;62469.81;5045695;28;20248;-77
2022/03/23 05:51:56;;;;;;;3.75;2.13;;;;;;;4.61;56.90;62477.94;5045880;28;20218;-77
2022/03/23 05:54:24;;;;;;;3.17;2.55;;;;;;;4.86;56.65;62500.63;5044201;28;20261;-77
2022/03/23 05:56:51;;;;;;;5.13;2.22;;;;;;;4.83;55.35;62498.06;5026751;28;20218;-77
2022/03/23 05:59:18;;;;;;;4.78;2.92;;;;;;;5.01;55.32;62514.06;5025644;28;20198;-77
2022/03/23 06:01:45;;;;;;;5.82;2.40;;;;;;;5.13;54.04;62528.44;5037497;28;20277;-77
2022/03/23 06:04:15;;;;;;;5.40;2.22;;;;;;;5.06;54.57;62516.69;5044523;28;20229;-76
2022/03/23 06:06:42;;;;;;;4.90;2.78;;;;;;;5.10;54.86;62523.34;5044261;28;20201;-77
2022/03/23 06:09:09;;;;;;;5.90;3.08;;;;;;;5.02;55.08;62515.09;5045939;28;20220;-76
2022/03/23 06:11:36;;;;;;;3.47;2.10;;;;;;;4.84;55.76;62499.09;5043874;28;20206;-77
2022/03/23 06:14:03;;;;;;;5.10;2.67;;;;;;;4.77;55.14;62488.84;5044660;28;20236;-77
2022/03/23 06:16:29;;;;;;;3.30;1.90;;;;;;;4.74;55.67;62488.81;5042912;28;20237;-77
2022/03/23 06:18:56;;;;;;;3.05;2.22;;;;;;;4.76;55.48;62483.28;5033634;28;20210;-77
2022/03/23 06:21:24;;;;;;;4.72;2.47;;;;;;;4.67;56.29;62477.06;5042038;28;20315;-76
2022/03/23 06:23:51;;;;;;;3.83;2.33;;;;;;;4.56;57.02;62470.78;5039818;28;20194;-76
2022/03/23 06:26:18;;;;;;;3.45;2.20;;;;;;;4.48;57.12;62459.50;5037607;28;20217;-76
2022/03/23 06:28:45;;;;;;;8.02;2.03;;;;;;;4.46;56.63;62457.44;5031402;28;20301;-76
2022/03/23 06:31:12;;;;;;;2.25;2.03;;;;;;;4.28;56.64;62436.41;5039414;28;20270;-75
2022/03/23 06:33:39;;;;;;;9.73;2.90;;;;;;;4.32;57.38;62451.13;5034031;28;20217;-77
2022/03/23 06:36:06;;;;;;;4.00;2.53;;;;;;;4.09;58.08;62419.38;5038533;28;20209;-75
2022/03/23 06:38:34;;;;;;;10.32;2.35;;;;;;;4.13;58.25;62426.00;5038859;28;20223;-76
2022/03/23 06:41:01;;;;;;;6.78;2.80;;;;;;;4.24;58.42;62437.34;5028411;28;20199;-76
2022/03/23 06:43:28;;;;;;;9.70;2.70;;;;;;;4.36;57.78;62452.22;5045956;28;20221;-77
2022/03/23 06:45:54;;;;;;;4.15;2.53;;;;;;;4.48;57.83;62457.00;5044225;28;20234;-76
2022/03/23 06:48:21;;;;;;;3.22;2.30;;;;;;;4.61;57.97;62478.44;5047925;28;20229;-77
2022/03/23 06:50:48;;;;;;;8.30;3.97;;;;;;;4.48;58.00;62457.00;5041367;28;20495;-75
2022/03/23 06:53:15;;;;;;;6.68;3.05;;;;;;;4.44;58.30;62458.44;5044778;28;20218;-76
2022/03/23 06:55:43;;;;;;;4.28;2.33;;;;;;;4.30;58.04;62441.50;5044493;28;20198;-75
2022/03/23 06:58:10;;;;;;;2.50;1.92;;;;;;;4.27;57.95;62443.47;5044833;28;20222;-75
2022/03/23 07:00:38;;;;;;;2.53;2.33;;;;;;;4.13;58.93;62426.53;5027987;28;20207;-76
2022/03/23 07:03:05;;;;;;;4.10;2.45;;;;;;;4.16;59.90;62421.56;5034030;28;20414;-75
2022/03/23 07:05:33;;;;;;;3.05;2.40;;;;;;;4.32;59.99;62440.53;5040840;28;20246;-77
2022/03/23 07:10:46;;;;;;;3.63;2.30;;;;;;;4.56;59.97;62472.78;5042101;28;20232;-76
2022/03/23 07:13:14;;;;;;;3.22;2.50;;;;;;;4.35;60.07;62451.16;5037647;28;20293;-75
2022/03/23 07:15:42;;;;;;;3.70;2.75;;;;;;;4.50;60.39;62462.06;5042327;28;20202;-79
2022/03/23 07:18:10;;;;;;;7.72;2.60;;;;;;;4.64;60.10;62476.00;5030850;28;20246;-79
2022/03/23 07:20:37;;;;;;;2.70;2.47;;;;;;;4.60;59.13;62474.91;5036392;28;20198;-79
2022/03/23 07:23:04;;;;;;;3.80;2.47;;;;;;;4.59;57.28;62473.88;5046083;28;20444;-80
2022/03/23 07:25:30;;;;;;;5.18;3.10;;;;;;;4.73;56.00;62487.75;5047242;28;20275;-80
2022/03/23 07:27:59;;;;;;;3.63;2.70;;;;;;;4.82;56.66;62494.50;5044830;28;20234;-79
2022/03/23 07:30:26;;;;;;;3.35;2.70;;;;;;;4.90;56.85;62502.75;5046778;28;20198;-81
2022/03/23 07:32:53;;;;;;;3.85;2.10;;;;;;;4.85;57.63;62499.63;5045399;28;20226;-81
2022/03/23 07:35:21;;;;;;;5.32;2.50;;;;;;;4.84;55.49;62499.09;5040161;28;20444;-80
2022/03/23 07:37:48;;;;;;;3.53;2.63;;;;;;;4.77;55.60;62486.31;5036513;28;20225;-81
2022/03/23 07:40:15;;;;;;;3.15;2.80;;;;;;;4.70;57.54;62480.16;5037875;28;20199;-81
2022/03/23 07:42:42;;;;;;;4.55;4.15;;;;;;;4.74;57.88;62486.78;5036182;28;20226;-81
2022/03/23 07:45:11;;;;;;;4.63;3.30;;;;;;;4.81;57.35;62492.97;5042472;28;20233;-80
2022/03/23 07:47:38;;;;;;;10.00;4.15;;;;;;;4.82;56.20;62493.97;5046360;28;20226;-81
2022/03/23 07:50:07;;;;;;;8.25;3.60;;;;;;;4.67;56.19;62481.59;5051869;28;20204;-80
2022/03/23 07:52:34;;;;;;;7.03;3.20;;;;;;;4.46;59.22;62459.97;5046302;28;20264;-77
2022/03/23 07:55:01;;;;;;;3.65;3.33;;;;;;;4.51;60.10;62467.63;5042256;28;20198;-77
2022/03/23 07:57:28;;;;;;;8.70;3.80;;;;;;;4.67;60.20;62476.56;5043125;28;20222;-78
2022/03/23 07:59:56;;;;;;;6.20;3.28;;;;;;;4.85;60.46;62504.66;5038126;28;20202;-78
2022/03/23 08:02:26;;;;;;;4.57;3.50;;;;;;;4.89;59.45;62499.19;5037021;28;20218;-77
2022/03/23 08:04:54;;;;;;;3.67;3.33;;;;;;;5.21;58.96;62536.69;5036957;28;20254;-77
2022/03/23 08:07:22;;;;;;;10.68;4.05;;;;;;;5.54;57.66;62571.19;5039443;28;20222;-77
2022/03/23 08:09:48;;;;;;;6.40;3.35;;;;;;;5.55;55.52;62572.22;5037888;28;20228;-76
2022/03/23 08:12:17;;;;;;;3.58;2.65;;;;;;;5.70;54.15;62582.09;5039584;28;20251;-77
2022/03/23 08:14:44;;;;;;;11.32;2.95;;;;;;;5.96;52.79;62619.03;5036697;28;20194;-78
2022/03/23 08:17:12;;;;;;;5.95;2.65;;;;;;;5.88;52.73;62605.72;5036266;28;20280;-77
2022/03/23 08:19:40;;;;;;;4.32;2.67;;;;;;;6.00;53.22;62617.56;5039370;28;20469;-78
2022/03/23 08:22:08;;;;;;;4.57;2.92;;;;;;;6.22;53.01;62638.25;5038043;28;20218;-77
2022/03/23 08:24:35;;;;;;;7.00;5.97;;;;;;;6.44;52.16;62663.44;5035159;28;20194;-77
2022/03/23 08:27:03;;;;;;;6.75;2.88;;;;;;;6.34;52.01;62650.09;5040986;28;20229;-77
2022/03/23 08:29:30;;;;;;;4.57;2.45;;;;;;;6.18;53.15;62639.16;5040657;28;20214;-79
2022/03/23 08:31:57;;;;;;;3.78;2.63;;;;;;;6.42;52.85;62658.84;5038739;28;20245;-77
2022/03/23 08:34:24;;;;;;;7.10;2.70;;;;;;;6.39;51.75;62658.28;5038352;28;20518;-78
2022/03/23 08:36:52;;;;;;;3.80;2.47;;;;;;;6.70;51.97;62689.75;5037042;28;20218;-78
2022/03/23 08:39:19;;;;;;;6.97;2.78;;;;;;;6.52;51.68;62669.16;5035603;28;20503;-78
2022/03/23 08:41:46;;;;;;;5.60;2.40;;;;;;;6.97;50.87;62715.59;5037008;28;20491;-79
2022/03/23 08:44:12;;;;;;;4.97;2.60;;;;;;;7.17;49.79;62740.25;5038715;28;20202;-77
2022/03/23 08:46:39;;;;;;;3.53;2.67;;;;;;;6.74;50.57;62691.34;5038418;28;20236;-77
2022/03/23 08:49:08;;;;;;;3.47;2.38;;;;;;;6.55;50.79;62674.81;5050253;28;20198;-78
2022/03/23 08:51:36;;;;;;;8.70;2.92;;;;;;;6.73;50.37;62695.38;5049616;28;20265;-78
2022/03/23 08:54:05;;;;;;;3.10;2.53;;;;;;;6.91;49.41;62709.41;5035972;28;20461;-78
2022/03/23 08:56:32;;;;;;;8.25;2.90;;;;;;;6.57;50.28;62676.88;5036485;28;20196;-78
2022/03/23 08:58:59;;;;;;;3.25;2.60;;;;;;;6.91;51.31;62708.88;5038153;28;20261;-78
2022/03/23 09:01:26;;;;;;;5.75;2.88;;;;;;;7.61;48.83;62783.63;5043763;28;20202;-80
2022/03/23 09:03:53;;;;;;;6.80;3.28;;;;;;;7.83;48.81;62805.84;5039125;28;20214;-76
2022/03/23 09:06:20;;;;;;;6.03;2.95;;;;;;;7.98;47.43;62821.84;5043484;28;20268;-78
2022/03/23 09:08:47;;;;;;;7.25;2.42;;;;;;;7.66;47.69;62788.28;5029073;28;20523;-77
2022/03/23 09:11:15;;;;;;;17.80;3.08;;;;;;;7.24;48.71;62744.94;5028909;28;20258;-77
2022/03/23 09:13:44;;;;;;;5.22;2.92;;;;;;;6.64;49.12;62679.00;5037475;28;20245;-78
2022/03/23 09:16:11;;;;;;;8.90;3.80;;;;;;;7.03;50.70;62721.78;5043792;28;20482;-77
2022/03/23 09:18:38;;;;;;;3.47;2.63;;;;;;;6.96;48.64;62719.63;5043611;28;20264;-78
2022/03/23 09:21:05;;;;;;;4.75;3.25;;;;;;;7.12;47.54;62733.09;5044665;28;20217;-77
2022/03/23 09:23:32;;;;;;;8.38;2.47;;;;;;;7.00;47.02;62718.16;5045496;28;20222;-78
2022/03/23 09:26:01;;;;;;;5.88;2.80;;;;;;;7.59;46.94;62783.59;5046806;28;21536;-77
2022/03/23 09:28:29;;;;;;;3.67;3.10;;;;;;;7.79;46.22;62804.75;5047438;28;20234;-78
2022/03/23 09:30:56;;;;;;;3.03;2.78;;;;;;;8.14;45.82;62842.94;5047444;28;20206;-78
2022/03/23 09:33:23;;;;;;;3.03;2.72;;;;;;;8.52;45.07;62879.16;5046808;28;20226;-77
2022/03/23 09:35:50;;;;;;;7.75;3.15;;;;;;;8.58;45.05;62882.78;5037114;28;20221;-77
2022/03/23 09:38:17;;;;;;;2.85;2.58;;;;;;;8.47;44.65;62871.44;5047447;28;20249;-78
2022/03/23 09:40:49;;;;;;;3.33;3.10;;;;;;;8.37;44.53;62858.59;5042458;28;20202;-79
2022/03/23 09:43:20;;;;;;;4.47;2.47;;;;;;;8.46;44.67;62870.91;5033534;28;20225;-78
2022/03/23 09:45:50;;;;;;;4.53;2.70;;;;;;;7.84;44.85;62802.31;5046137;28;20256;-77
2022/03/23 09:48:21;;;;;;;6.88;3.70;;;;;;;8.02;45.07;62828.50;5039116;28;20218;-77
2022/03/23 09:50:52;;;;;;;4.03;3.45;;;;;;;8.15;44.58;62836.34;5046629;28;20209;-78
2022/03/23 09:53:21;;;;;;;3.47;3.05;;;;;;;8.48;44.43;62872.47;5049309;28;20214;-78
2022/03/23 09:55:50;;;;;;;4.25;3.00;;;;;;;8.75;43.89;62903.41;5045134;28;20221;-78
2022/03/23 09:58:18;;;;;;;7.82;3.75;;;;;;;8.76;45.42;62901.41;5048755;28;20232;-79
2022/03/23 10:00:45;;;;;;;6.70;2.70;;;;;;;8.75;44.36;62900.88;5045740;28;20198;-78
2022/03/23 10:03:51;;;;;;;5.85;2.70;;;;;;;8.57;44.00;62879.22;5045870;28;20561;-77
2022/03/23 10:06:49;;;;;;;5.68;2.78;;;;;;;8.00;45.26;62818.31;5044431;28;20475;-78
2022/03/23 10:09:51;;;;;;;7.35;2.40;;;;;;;7.87;46.22;62810.47;5047386;28;20198;-78
2022/03/23 10:13:01;;;;;;;4.70;3.42;;;;;;;7.98;45.85;62816.25;5044078;28;20309;-79
2022/03/23 10:16:04;;;;;;;6.05;3.60;;;;;;;7.73;47.20;62795.53;5040160;28;20214;-78
2022/03/23 10:18:54;;;;;;;7.72;3.60;;;;;;;7.76;46.80;62801.66;5049413;28;20317;-79
2022/03/23 10:21:23;;;;;;;7.50;3.30;;;;;;;7.69;46.39;62791.38;5048163;28;20252;-77
2022/03/23 10:24:30;;;;;;;7.88;3.40;;;;;;;7.76;46.95;62799.13;5054528;28;20230;-78
2022/03/23 10:27:02;;;;;;;9.35;3.75;;;;;;;8.15;45.98;62836.88;5047468;28;20249;-76
2022/03/23 10:29:31;;;;;;;7.03;3.00;;;;;;;8.21;44.95;62843.06;5044879;28;20575;-77
2022/03/23 10:32:03;;;;;;;7.65;3.20;;;;;;;8.07;45.49;62833.16;5046616;28;20289;-77
2022/03/23 10:34:48;;;;;;;3.40;3.10;;;;;;;8.28;46.16;62849.28;5041227;28;20206;-78
2022/03/23 10:37:17;;;;;;;7.53;2.60;;;;;;;8.31;45.67;62854.91;5037924;28;20457;-78
2022/03/23 10:39:48;;;;;;;3.40;2.83;;;;;;;8.48;45.23;62869.94;5048878;28;20206;-78
2022/03/23 10:42:20;;;;;;;5.40;3.45;;;;;;;8.71;45.11;62896.75;5045813;28;20225;-78
2022/03/23 10:44:48;;;;;;;11.43;3.42;;;;;;;9.04;44.68;62933.38;5042653;28;20190;-77
2022/03/23 10:47:31;;;;;;;7.63;3.45;;;;;;;8.95;43.66;62921.56;5033771;28;20235;-79
2022/03/23 10:50:06;;;;;;;6.63;3.13;;;;;;;9.10;44.17;62937.06;5043704;28;20198;-79
2022/03/23 10:52:33;;;;;;;3.17;2.88;;;;;;;9.34;44.06;62958.81;5047711;28;20584;-79
2022/03/23 10:55:04;;;;;;;6.25;3.20;;;;;;;9.49;42.53;62974.31;5048560;28;20233;-78
2022/03/23 10:57:57;;;;;;;13.80;4.57;;;;;;;9.59;42.20;62984.16;5051345;28;20228;-77
2022/03/23 11:00:29;;;;;;;6.60;3.55;;;;;;;9.50;41.68;62972.28;5050263;28;20205;-79
2022/03/23 11:02:56;;;;;;;2.92;2.72;;;;;;;9.56;41.70;62984.09;5046483;28;20250;-79
2022/03/23 11:05:32;;;;;;;4.13;3.10;;;;;;;9.40;40.78;62969.59;5055471;28;20202;-79
2022/03/23 11:08:09;;;;;;;6.53;2.65;;;;;;;9.29;40.51;62951.09;5054216;28;20225;-78
2022/03/23 11:16:12;;;;;;;3.50;2.53;;;;;;;8.32;41.82;62859.00;5047907;28;20330;-78
2022/03/23 11:18:39;;;;;;;4.28;2.92;;;;;;;8.49;41.70;62874.00;5040473;28;20221;-79
2022/03/23 11:21:07;;;;;;;3.08;2.40;;;;;;;8.55;41.15;62877.69;5048059;28;20263;-79
2022/03/23 11:23:36;;;;;;;6.55;2.83;;;;;;;8.80;41.08;62900.97;5049336;28;20218;-78
2022/03/23 11:26:05;;;;;;;3.90;3.25;;;;;;;9.14;40.53;62938.13;5037457;28;20280;-78
2022/03/23 11:28:36;;;;;;;5.18;3.22;;;;;;;9.07;39.23;62933.44;5047701;28;20249;-80
2022/03/23 11:31:05;;;;;;;4.10;2.88;;;;;;;9.38;39.84;62965.50;5049915;28;20201;-78
2022/03/23 11:33:34;;;;;;;4.28;2.72;;;;;;;9.11;38.67;62938.09;5048830;28;20222;-79
2022/03/23 11:36:01;;;;;;;4.35;2.78;;;;;;;9.19;39.49;62945.84;5041921;28;20209;-78
2022/03/23 11:38:29;;;;;;;5.00;2.80;;;;;;;9.31;39.91;62956.22;5050498;28;20236;-80
2022/03/23 11:40:58;;;;;;;7.63;2.78;;;;;;;9.13;39.32;62940.16;5049396;28;20193;-78
2022/03/23 11:43:26;;;;;;;7.78;2.90;;;;;;;9.03;39.50;62929.31;5044757;28;20401;-75
2022/03/23 11:45:55;;;;;;;3.42;2.47;;;;;;;9.22;40.27;62946.41;5042577;28;20554;-79
2022/03/23 11:48:32;;;;;;;2.55;2.40;;;;;;;9.31;38.46;62958.25;5047929;28;20218;-79
2022/03/23 11:51:15;;;;;;;4.50;2.75;;;;;;;9.08;39.60;62934.47;5047447;28;20190;-79
2022/03/23 11:53:55;;;;;;;6.13;3.00;;;;;;;8.97;36.60;62916.00;5046600;28;20411;-78
2022/03/23 11:56:28;;;;;;;2.53;2.33;;;;;;;8.76;36.19;62901.41;5039361;28;20210;-78
2022/03/23 11:58:55;;;;;;;3.85;2.50;;;;;;;8.77;38.40;62902.94;5049194;28;20198;-79
2022/03/23 12:01:31;;;;;;;6.63;3.40;;;;;;;8.79;39.00;62905.03;5033243;28;20206;-76
2022/03/23 12:04:03;;;;;;;4.07;2.75;;;;;;;8.85;39.76;62908.16;5026471;28;20209;-76
2022/03/23 12:06:39;;;;;;;4.95;3.13;;;;;;;8.87;40.07;62910.75;5029206;28;20237;-77